sensor_id;sensor_type;location;lat;lon;timestamp;pressure;altitude;pressure_sealevel;temperature;humidity
39491;BME280;25175;50.140;18.990;2023-08-31T00:02:50;97751.59;;;15.71;69.08
39491;BME280;25175;50.140;18.990;2023-08-31T00:05:54;97753.69;;;15.68;69.30
39491;BME280;25175;50.140;18.990;2023-08-31T00:09:01;97754.19;;;15.65;69.44
39491;BME280;25175;50.140;18.990;2023-08-31T00:12:10;97749.91;;;15.59;69.61
39491;BME280;25175;50.140;18.990;2023-08-31T00:15:16;97752.00;;;15.57;69.68
39491;BME280;25175;50.140;18.990;2023-08-31T00:18:23;97747.53;;;15.58;69.85
39491;BME280;25175;50.140;18.990;2023-08-31T00:21:29;97745.09;;;15.51;69.81
39491;BME280;25175;50.140;18.990;2023-08-31T00:24:34;97744.34;;;15.56;69.74
39491;BME280;25175;50.140;18.990;2023-08-31T00:27:40;97721.25;;;15.37;69.73
39491;BME280;25175;50.140;18.990;2023-08-31T00:30:48;97755.44;;;15.53;69.96
39491;BME280;25175;50.140;18.990;2023-08-31T00:33:56;97740.06;;;15.45;70.18
39491;BME280;25175;50.140;18.990;2023-08-31T00:37:04;97752.50;;;15.49;70.22
39491;BME280;25175;50.140;18.990;2023-08-31T00:40:11;97765.47;;;15.51;70.07
39491;BME280;25175;50.140;18.990;2023-08-31T00:43:16;97757.53;;;15.51;70.24
39491;BME280;25175;50.140;18.990;2023-08-31T00:46:21;97752.00;;;15.52;70.13
39491;BME280;25175;50.140;18.990;2023-08-31T00:49:28;97760.19;;;15.51;69.86
39491;BME280;25175;50.140;18.990;2023-08-31T00:52:34;97758.84;;;15.48;70.10
39491;BME280;25175;50.140;18.990;2023-08-31T00:55:39;97743.75;;;15.44;70.29
39491;BME280;25175;50.140;18.990;2023-08-31T00:58:44;97748.25;;;15.43;70.42
39491;BME280;25175;50.140;18.990;2023-08-31T01:01:58;97750.66;;;15.45;70.25
39491;BME280;25175;50.140;18.990;2023-08-31T01:05:23;97739.78;;;15.46;70.20
39491;BME280;25175;50.140;18.990;2023-08-31T01:08:49;97745.38;;;15.50;70.14
39491;BME280;25175;50.140;18.990;2023-08-31T01:12:07;97744.06;;;15.52;70.06
39491;BME280;25175;50.140;18.990;2023-08-31T01:15:15;97744.59;;;15.54;70.29
39491;BME280;25175;50.140;18.990;2023-08-31T01:18:23;97743.56;;;15.60;70.06
39491;BME280;25175;50.140;18.990;2023-08-31T01:21:40;97753.66;;;15.63;69.95
39491;BME280;25175;50.140;18.990;2023-08-31T01:24:53;97756.28;;;15.63;69.94
39491;BME280;25175;50.140;18.990;2023-08-31T01:27:59;97758.94;;;15.63;69.73
39491;BME280;25175;50.140;18.990;2023-08-31T01:31:05;97759.44;;;15.60;69.83
39491;BME280;25175;50.140;18.990;2023-08-31T01:34:10;97759.66;;;15.54;69.98
39491;BME280;25175;50.140;18.990;2023-08-31T01:37:45;97749.38;;;15.52;70.16
39491;BME280;25175;50.140;18.990;2023-08-31T01:41:03;97745.09;;;15.51;70.36
39491;BME280;25175;50.140;18.990;2023-08-31T01:44:15;97756.25;;;15.53;70.05
39491;BME280;25175;50.140;18.990;2023-08-31T01:47:23;97670.78;;;14.97;70.00
39491;BME280;25175;50.140;18.990;2023-08-31T01:50:30;97744.84;;;15.53;69.93
39491;BME280;25175;50.140;18.990;2023-08-31T01:53:34;97745.38;;;15.50;69.82
39491;BME280;25175;50.140;18.990;2023-08-31T01:56:42;97752.50;;;15.49;69.72
39491;BME280;25175;50.140;18.990;2023-08-31T01:59:47;97759.09;;;15.47;70.08
39491;BME280;25175;50.140;18.990;2023-08-31T02:02:52;97544.50;;;14.06;69.97
39491;BME280;25175;50.140;18.990;2023-08-31T02:05:56;97768.88;;;15.42;70.25
39491;BME280;25175;50.140;18.990;2023-08-31T02:09:02;97769.63;;;15.37;70.34
39491;BME280;25175;50.140;18.990;2023-08-31T02:12:10;97773.56;;;15.34;70.36
39491;BME280;25175;50.140;18.990;2023-08-31T02:15:15;97769.88;;;15.31;70.52
39491;BME280;25175;50.140;18.990;2023-08-31T02:18:20;97774.84;;;15.27;70.67
39491;BME280;25175;50.140;18.990;2023-08-31T02:21:26;97769.50;;;15.17;70.95
39491;BME280;25175;50.140;18.990;2023-08-31T02:24:30;97775.59;;;15.23;70.89
39491;BME280;25175;50.140;18.990;2023-08-31T02:27:38;97781.69;;;15.23;70.99
39491;BME280;25175;50.140;18.990;2023-08-31T02:30:45;97785.13;;;15.23;71.11
39491;BME280;25175;50.140;18.990;2023-08-31T02:33:51;97779.06;;;15.23;71.07
39491;BME280;25175;50.140;18.990;2023-08-31T02:36:55;97778.78;;;15.24;70.99
39491;BME280;25175;50.140;18.990;2023-08-31T02:40:04;97778.78;;;15.24;70.90
39491;BME280;25175;50.140;18.990;2023-08-31T02:43:13;97770.06;;;15.24;70.91
39491;BME280;25175;50.140;18.990;2023-08-31T02:46:18;97775.66;;;15.27;70.94
39491;BME280;25175;50.140;18.990;2023-08-31T02:49:24;97770.84;;;15.24;71.14
39491;BME280;25175;50.140;18.990;2023-08-31T02:52:32;97775.88;;;15.26;71.23
39491;BME280;25175;50.140;18.990;2023-08-31T02:55:36;97768.63;;;15.07;71.12
39491;BME280;25175;50.140;18.990;2023-08-31T02:58:44;97776.94;;;15.25;71.06
39491;BME280;25175;50.140;18.990;2023-08-31T03:01:49;97773.78;;;15.23;71.13
39491;BME280;25175;50.140;18.990;2023-08-31T03:04:55;97785.69;;;15.26;71.25
39491;BME280;25175;50.140;18.990;2023-08-31T03:08:00;97782.53;;;15.28;71.34
39491;BME280;25175;50.140;18.990;2023-08-31T03:11:06;97787.56;;;15.30;70.78
39491;BME280;25175;50.140;18.990;2023-08-31T03:14:13;97784.91;;;15.30;71.12
39491;BME280;25175;50.140;18.990;2023-08-31T03:17:18;97794.41;;;15.26;71.24
39491;BME280;25175;50.140;18.990;2023-08-31T03:20:24;97784.34;;;15.23;70.97
39491;BME280;25175;50.140;18.990;2023-08-31T03:23:30;97779.06;;;15.23;71.13
39491;BME280;25175;50.140;18.990;2023-08-31T03:26:35;97791.47;;;15.23;71.59
39491;BME280;25175;50.140;18.990;2023-08-31T03:29:43;97776.13;;;15.24;71.32
39491;BME280;25175;50.140;18.990;2023-08-31T03:32:47;97793.63;;;15.26;71.39
39491;BME280;25175;50.140;18.990;2023-08-31T03:35:53;97800.25;;;15.28;71.25
39491;BME280;25175;50.140;18.990;2023-08-31T03:38:59;97797.84;;;15.27;71.12
39491;BME280;25175;50.140;18.990;2023-08-31T03:42:06;97803.13;;;15.27;71.09
39491;BME280;25175;50.140;18.990;2023-08-31T03:45:14;97799.97;;;15.29;71.02
39491;BME280;25175;50.140;18.990;2023-08-31T03:48:20;97810.53;;;15.29;70.94
39491;BME280;25175;50.140;18.990;2023-08-31T03:51:24;97745.75;;;14.86;71.09
39491;BME280;25175;50.140;18.990;2023-08-31T03:54:30;97816.88;;;15.28;70.97
39491;BME280;25175;50.140;18.990;2023-08-31T03:57:35;97831.69;;;15.29;70.91
39491;BME280;25175;50.140;18.990;2023-08-31T04:00:51;97817.66;;;15.24;71.00
39491;BME280;25175;50.140;18.990;2023-08-31T04:03:56;97830.09;;;15.28;71.05
39491;BME280;25175;50.140;18.990;2023-08-31T04:07:01;97824.00;;;15.23;71.06
39491;BME280;25175;50.140;18.990;2023-08-31T04:10:08;97824.25;;;15.22;71.07
39491;BME280;25175;50.140;18.990;2023-08-31T04:13:13;97762.16;;;14.88;71.26
39491;BME280;25175;50.140;18.990;2023-08-31T04:16:20;97817.13;;;15.27;71.04
39491;BME280;25175;50.140;18.990;2023-08-31T04:19:26;97822.69;;;15.26;71.11
39491;BME280;25175;50.140;18.990;2023-08-31T04:22:31;97830.63;;;15.26;71.28
39491;BME280;25175;50.140;18.990;2023-08-31T04:25:36;97820.81;;;15.26;71.27
39491;BME280;25175;50.140;18.990;2023-08-31T04:28:41;97810.75;;;15.18;71.30
39491;BME280;25175;50.140;18.990;2023-08-31T04:31:49;97827.69;;;15.27;71.67
39491;BME280;25175;50.140;18.990;2023-08-31T04:34:54;97815.25;;;15.23;71.51
39491;BME280;25175;50.140;18.990;2023-08-31T04:38:01;97823.75;;;15.29;71.38
39491;BME280;25175;50.140;18.990;2023-08-31T04:41:07;97823.75;;;15.29;71.75
39491;BME280;25175;50.140;18.990;2023-08-31T04:44:12;97825.88;;;15.27;71.61
39491;BME280;25175;50.140;18.990;2023-08-31T04:47:20;97820.28;;;15.24;72.12
39491;BME280;25175;50.140;18.990;2023-08-31T04:50:27;97831.41;;;15.26;72.47
39491;BME280;25175;50.140;18.990;2023-08-31T04:53:32;97745.38;;;14.77;72.24
39491;BME280;25175;50.140;18.990;2023-08-31T04:56:37;97823.72;;;15.24;72.45
39491;BME280;25175;50.140;18.990;2023-08-31T04:59:42;97837.50;;;15.27;72.94
39491;BME280;25175;50.140;18.990;2023-08-31T05:02:50;97841.75;;;15.33;73.12
39491;BME280;25175;50.140;18.990;2023-08-31T05:05:55;97843.63;;;15.37;72.69
39491;BME280;25175;50.140;18.990;2023-08-31T05:09:01;97851.03;;;15.35;72.27
39491;BME280;25175;50.140;18.990;2023-08-31T05:12:07;97839.13;;;15.33;72.39
39491;BME280;25175;50.140;18.990;2023-08-31T05:15:13;97845.47;;;15.32;72.15
39491;BME280;25175;50.140;18.990;2023-08-31T05:18:20;97840.19;;;15.32;72.34
39491;BME280;25175;50.140;18.990;2023-08-31T05:21:26;97845.75;;;15.35;72.64
39491;BME280;25175;50.140;18.990;2023-08-31T05:24:30;97836.47;;;15.33;72.06
39491;BME280;25175;50.140;18.990;2023-08-31T05:27:35;97857.91;;;15.36;71.82
39491;BME280;25175;50.140;18.990;2023-08-31T05:30:48;97865.59;;;15.38;72.00
39491;BME280;25175;50.140;18.990;2023-08-31T05:33:57;97875.16;;;15.43;72.17
39491;BME280;25175;50.140;18.990;2023-08-31T05:37:02;97871.41;;;15.39;71.72
39491;BME280;25175;50.140;18.990;2023-08-31T05:40:09;97867.50;;;15.47;71.46
39491;BME280;25175;50.140;18.990;2023-08-31T05:43:15;97869.06;;;15.43;71.78
39491;BME280;25175;50.140;18.990;2023-08-31T05:46:21;97883.63;;;15.45;71.24
39491;BME280;25175;50.140;18.990;2023-08-31T05:49:28;97884.19;;;15.48;71.75
39491;BME280;25175;50.140;18.990;2023-08-31T05:52:33;97880.97;;;15.45;71.48
39491;BME280;25175;50.140;18.990;2023-08-31T05:55:38;97876.72;;;15.39;71.89
39491;BME280;25175;50.140;18.990;2023-08-31T05:58:43;97887.06;;;15.46;71.42
39491;BME280;25175;50.140;18.990;2023-08-31T06:01:49;97892.06;;;15.43;71.29
39491;BME280;25175;50.140;18.990;2023-08-31T06:04:57;97893.91;;;15.42;71.28
39491;BME280;25175;50.140;18.990;2023-08-31T06:08:01;97860.72;;;15.20;71.18
39491;BME280;25175;50.140;18.990;2023-08-31T06:11:07;97893.09;;;15.37;71.56
39491;BME280;25175;50.140;18.990;2023-08-31T06:14:11;97886.19;;;15.35;71.33
39491;BME280;25175;50.140;18.990;2023-08-31T06:17:17;97894.13;;;15.35;71.27
39491;BME280;25175;50.140;18.990;2023-08-31T06:20:24;97866.56;;;15.27;71.75
39491;BME280;25175;50.140;18.990;2023-08-31T06:23:29;97893.38;;;15.40;71.62
39491;BME280;25175;50.140;18.990;2023-08-31T06:26:34;97895.78;;;15.46;71.40
39491;BME280;25175;50.140;18.990;2023-08-31T06:29:39;97904.81;;;15.50;71.25
39491;BME280;25175;50.140;18.990;2023-08-31T06:32:46;97905.91;;;15.54;71.22
39491;BME280;25175;50.140;18.990;2023-08-31T06:35:55;97909.66;;;15.58;71.05
39491;BME280;25175;50.140;18.990;2023-08-31T06:38:59;97893.47;;;15.55;70.39
39491;BME280;25175;50.140;18.990;2023-08-31T06:42:06;97902.84;;;15.68;70.54
39491;BME280;25175;50.140;18.990;2023-08-31T06:45:13;97917.66;;;15.68;70.36
39491;BME280;25175;50.140;18.990;2023-08-31T06:48:18;97908.97;;;15.68;70.06
39491;BME280;25175;50.140;18.990;2023-08-31T06:51:27;97915.03;;;15.68;70.11
39491;BME280;25175;50.140;18.990;2023-08-31T06:54:32;97905.53;;;15.73;70.15
39491;BME280;25175;50.140;18.990;2023-08-31T06:57:37;97907.13;;;15.73;70.15
39491;BME280;25175;50.140;18.990;2023-08-31T07:00:43;97911.13;;;15.76;69.92
39491;BME280;25175;50.140;18.990;2023-08-31T07:03:49;97919.31;;;15.75;69.43
39491;BME280;25175;50.140;18.990;2023-08-31T07:06:57;97923.28;;;15.77;69.83
39491;BME280;25175;50.140;18.990;2023-08-31T07:10:01;97915.34;;;15.77;69.50
39491;BME280;25175;50.140;18.990;2023-08-31T07:13:07;97933.91;;;15.82;69.93
39491;BME280;25175;50.140;18.990;2023-08-31T07:16:12;97929.94;;;15.84;69.80
39491;BME280;25175;50.140;18.990;2023-08-31T07:19:17;97927.06;;;15.86;69.47
39491;BME280;25175;50.140;18.990;2023-08-31T07:22:24;97929.25;;;15.94;69.55
39491;BME280;25175;50.140;18.990;2023-08-31T07:25:29;97937.75;;;16.01;69.27
39491;BME280;25175;50.140;18.990;2023-08-31T07:28:36;97935.38;;;16.04;68.69
39491;BME280;25175;50.140;18.990;2023-08-31T07:31:42;97943.59;;;16.08;68.49
39491;BME280;25175;50.140;18.990;2023-08-31T07:34:46;97931.75;;;16.15;68.22
39491;BME280;25175;50.140;18.990;2023-08-31T07:37:54;97926.22;;;16.22;68.24
39491;BME280;25175;50.140;18.990;2023-08-31T07:40:59;97933.66;;;16.30;67.39
39491;BME280;25175;50.140;18.990;2023-08-31T07:44:06;97942.19;;;16.42;68.51
39491;BME280;25175;50.140;18.990;2023-08-31T07:47:11;97943.84;;;16.53;67.65
39491;BME280;25175;50.140;18.990;2023-08-31T07:50:16;97904.56;;;16.35;66.22
39491;BME280;25175;50.140;18.990;2023-08-31T07:53:24;97937.28;;;16.60;65.71
39491;BME280;25175;50.140;18.990;2023-08-31T07:56:29;97945.53;;;16.74;65.77
39491;BME280;25175;50.140;18.990;2023-08-31T07:59:33;97952.19;;;16.81;65.50
39491;BME280;25175;50.140;18.990;2023-08-31T08:02:41;97949.00;;;16.89;64.87
39491;BME280;25175;50.140;18.990;2023-08-31T08:05:46;97952.50;;;16.95;65.16
39491;BME280;25175;50.140;18.990;2023-08-31T08:08:55;97956.22;;;17.04;63.39
39491;BME280;25175;50.140;18.990;2023-08-31T08:12:00;97959.16;;;17.12;63.57
39491;BME280;25175;50.140;18.990;2023-08-31T08:15:07;97963.69;;;17.22;63.78
39491;BME280;25175;50.140;18.990;2023-08-31T08:18:12;97970.09;;;17.36;63.12
39491;BME280;25175;50.140;18.990;2023-08-31T08:21:17;97958.97;;;17.39;61.29
39491;BME280;25175;50.140;18.990;2023-08-31T08:24:24;97974.63;;;17.40;60.64
39491;BME280;25175;50.140;18.990;2023-08-31T08:27:30;97961.91;;;17.57;60.91
39491;BME280;25175;50.140;18.990;2023-08-31T08:30:34;97986.56;;;17.63;60.06
39491;BME280;25175;50.140;18.990;2023-08-31T08:33:40;97983.38;;;17.66;59.58
39491;BME280;25175;50.140;18.990;2023-08-31T08:36:44;97976.75;;;17.63;59.46
39491;BME280;25175;50.140;18.990;2023-08-31T08:39:52;97986.56;;;17.78;59.29
39491;BME280;25175;50.140;18.990;2023-08-31T08:43:00;97940.66;;;17.57;59.69
39491;BME280;25175;50.140;18.990;2023-08-31T08:46:06;97979.63;;;17.97;58.61
39491;BME280;25175;50.140;18.990;2023-08-31T08:49:14;97973.84;;;18.10;59.76
39491;BME280;25175;50.140;18.990;2023-08-31T08:52:20;97973.81;;;18.20;58.39
39491;BME280;25175;50.140;18.990;2023-08-31T08:55:29;97971.69;;;18.22;57.75
39491;BME280;25175;50.140;18.990;2023-08-31T08:58:35;97971.41;;;18.28;57.01
39491;BME280;25175;50.140;18.990;2023-08-31T09:01:39;97978.28;;;18.39;56.50
39491;BME280;25175;50.140;18.990;2023-08-31T09:04:45;97971.06;;;18.50;58.01
39491;BME280;25175;50.140;18.990;2023-08-31T09:08:09;97968.63;;;18.63;57.84
39491;BME280;25175;50.140;18.990;2023-08-31T09:11:23;97982.66;;;18.74;57.92
39491;BME280;25175;50.140;18.990;2023-08-31T09:14:29;97975.22;;;18.86;57.65
39491;BME280;25175;50.140;18.990;2023-08-31T09:17:38;97947.88;;;18.65;56.91
39491;BME280;25175;50.140;18.990;2023-08-31T09:20:47;97992.72;;;18.97;57.48
39491;BME280;25175;50.140;18.990;2023-08-31T09:23:56;98000.59;;;19.12;59.75
39491;BME280;25175;50.140;18.990;2023-08-31T09:27:05;98000.31;;;19.18;57.47
39491;BME280;25175;50.140;18.990;2023-08-31T09:30:12;98004.03;;;19.17;56.43
39491;BME280;25175;50.140;18.990;2023-08-31T09:33:19;98011.44;;;19.20;57.08
39491;BME280;25175;50.140;18.990;2023-08-31T09:36:26;97998.94;;;19.26;55.97
39491;BME280;25175;50.140;18.990;2023-08-31T09:39:36;98008.72;;;19.35;56.19
39491;BME280;25175;50.140;18.990;2023-08-31T09:42:44;98006.50;;;19.47;57.64
39491;BME280;25175;50.140;18.990;2023-08-31T09:45:50;97956.09;;;19.27;56.10
39491;BME280;25175;50.140;18.990;2023-08-31T09:48:57;97951.44;;;19.43;56.83
39491;BME280;25175;50.140;18.990;2023-08-31T09:52:04;98013.44;;;19.87;54.61
39491;BME280;25175;50.140;18.990;2023-08-31T09:55:13;98012.09;;;19.89;54.47
39491;BME280;25175;50.140;18.990;2023-08-31T09:58:22;98007.00;;;19.93;53.74
39491;BME280;25175;50.140;18.990;2023-08-31T10:01:29;98008.00;;;20.02;54.32
39491;BME280;25175;50.140;18.990;2023-08-31T10:04:34;97977.00;;;19.82;53.10
39491;BME280;25175;50.140;18.990;2023-08-31T10:07:43;98019.09;;;20.09;51.83
39491;BME280;25175;50.140;18.990;2023-08-31T10:10:49;98009.19;;;20.14;52.98
39491;BME280;25175;50.140;18.990;2023-08-31T10:13:58;98010.19;;;20.23;54.42
39491;BME280;25175;50.140;18.990;2023-08-31T10:17:03;98001.31;;;20.33;53.79
39491;BME280;25175;50.140;18.990;2023-08-31T10:20:12;98002.56;;;20.40;52.81
39491;BME280;25175;50.140;18.990;2023-08-31T10:23:19;98013.44;;;20.44;52.34
39491;BME280;25175;50.140;18.990;2023-08-31T10:26:27;97995.88;;;20.43;52.01
39491;BME280;25175;50.140;18.990;2023-08-31T10:29:35;98014.16;;;20.54;51.90
39491;BME280;25175;50.140;18.990;2023-08-31T10:32:40;98008.47;;;20.61;51.72
39491;BME280;25175;50.140;18.990;2023-08-31T10:35:50;98007.31;;;20.67;51.32
39491;BME280;25175;50.140;18.990;2023-08-31T10:39:01;98011.81;;;20.71;51.18
39491;BME280;25175;50.140;18.990;2023-08-31T10:42:10;98012.59;;;20.72;49.68
39491;BME280;25175;50.140;18.990;2023-08-31T10:45:19;98004.03;;;20.75;49.87
39491;BME280;25175;50.140;18.990;2023-08-31T10:48:25;98014.38;;;20.81;50.73
39491;BME280;25175;50.140;18.990;2023-08-31T10:51:32;98009.53;;;20.83;48.49
39491;BME280;25175;50.140;18.990;2023-08-31T10:54:36;98015.44;;;20.80;48.45
39491;BME280;25175;50.140;18.990;2023-08-31T10:57:41;98024.53;;;20.79;49.52
39491;BME280;25175;50.140;18.990;2023-08-31T11:00:52;98020.59;;;20.72;49.95
39491;BME280;25175;50.140;18.990;2023-08-31T11:03:58;98017.53;;;20.83;50.87
39491;BME280;25175;50.140;18.990;2023-08-31T11:07:14;98011.38;;;20.88;49.22
39491;BME280;25175;50.140;18.990;2023-08-31T11:10:23;97991.34;;;20.90;48.80
39491;BME280;25175;50.140;18.990;2023-08-31T11:13:28;98010.75;;;20.96;47.14
39491;BME280;25175;50.140;18.990;2023-08-31T11:16:38;97964.09;;;20.70;48.24
39491;BME280;25175;50.140;18.990;2023-08-31T11:19:44;98018.38;;;21.02;48.07
39491;BME280;25175;50.140;18.990;2023-08-31T11:22:51;98013.66;;;20.99;47.98
39491;BME280;25175;50.140;18.990;2023-08-31T11:25:57;98011.59;;;20.91;48.17
39491;BME280;25175;50.140;18.990;2023-08-31T11:29:06;98015.63;;;20.89;48.88
39491;BME280;25175;50.140;18.990;2023-08-31T11:32:14;98018.09;;;20.80;48.83
39491;BME280;25175;50.140;18.990;2023-08-31T11:35:20;98024.28;;;20.76;49.29
39491;BME280;25175;50.140;18.990;2023-08-31T11:38:27;98020.16;;;20.65;49.36
39491;BME280;25175;50.140;18.990;2023-08-31T11:41:34;98002.91;;;20.57;49.77
39491;BME280;25175;50.140;18.990;2023-08-31T11:44:42;98008.13;;;20.67;50.35
39491;BME280;25175;50.140;18.990;2023-08-31T11:47:52;98003.47;;;20.78;51.30
39491;BME280;25175;50.140;18.990;2023-08-31T11:50:58;97990.25;;;20.91;51.18
39491;BME280;25175;50.140;18.990;2023-08-31T11:54:05;97999.44;;;21.04;50.78
39491;BME280;25175;50.140;18.990;2023-08-31T11:57:10;97987.41;;;21.06;49.82
39491;BME280;25175;50.140;18.990;2023-08-31T12:00:17;97988.28;;;21.02;49.02
39491;BME280;25175;50.140;18.990;2023-08-31T12:03:26;98002.38;;;21.02;49.76
39491;BME280;25175;50.140;18.990;2023-08-31T12:06:32;97983.00;;;20.97;50.77
39491;BME280;25175;50.140;18.990;2023-08-31T12:09:36;97983.97;;;21.06;49.72
39491;BME280;25175;50.140;18.990;2023-08-31T12:12:42;97987.81;;;21.13;50.58
39491;BME280;25175;50.140;18.990;2023-08-31T12:15:46;97969.09;;;21.18;47.64
39491;BME280;25175;50.140;18.990;2023-08-31T12:18:58;97985.03;;;21.23;47.15
39491;BME280;25175;50.140;18.990;2023-08-31T12:22:03;97981.78;;;21.26;45.67
39491;BME280;25175;50.140;18.990;2023-08-31T12:25:09;97982.88;;;21.25;46.05
39491;BME280;25175;50.140;18.990;2023-08-31T12:28:23;98000.69;;;21.30;45.89
39491;BME280;25175;50.140;18.990;2023-08-31T12:31:29;97990.78;;;21.30;45.14
39491;BME280;25175;50.140;18.990;2023-08-31T12:34:37;97952.28;;;21.18;44.78
39491;BME280;25175;50.140;18.990;2023-08-31T12:37:42;97981.28;;;21.24;43.89
39491;BME280;25175;50.140;18.990;2023-08-31T12:40:47;97980.72;;;21.27;43.57
39491;BME280;25175;50.140;18.990;2023-08-31T12:43:52;97982.34;;;21.42;43.08
39491;BME280;25175;50.140;18.990;2023-08-31T12:46:57;97981.44;;;21.51;43.22
39491;BME280;25175;50.140;18.990;2023-08-31T12:50:06;97986.63;;;21.61;43.35
39491;BME280;25175;50.140;18.990;2023-08-31T12:53:11;97990.38;;;21.60;41.48
39491;BME280;25175;50.140;18.990;2023-08-31T12:56:17;97992.16;;;21.46;42.04
39491;BME280;25175;50.140;18.990;2023-08-31T12:59:22;98020.47;;;21.47;43.60
39491;BME280;25175;50.140;18.990;2023-08-31T13:02:28;98031.34;;;21.32;45.29
39491;BME280;25175;50.140;18.990;2023-08-31T13:05:38;98044.47;;;21.10;47.12
39491;BME280;25175;50.140;18.990;2023-08-31T13:08:45;98053.31;;;20.82;46.57
39491;BME280;25175;50.140;18.990;2023-08-31T13:11:49;98064.28;;;20.52;47.35
39491;BME280;25175;50.140;18.990;2023-08-31T13:14:54;98060.31;;;20.21;48.20
39491;BME280;25175;50.140;18.990;2023-08-31T13:18:00;98076.47;;;19.96;48.97
39491;BME280;25175;50.140;18.990;2023-08-31T13:21:07;98073.66;;;19.78;49.84
39491;BME280;25175;50.140;18.990;2023-08-31T13:24:12;98097.47;;;19.59;53.17
39491;BME280;25175;50.140;18.990;2023-08-31T13:27:18;97838.19;;;17.76;55.60
39491;BME280;25175;50.140;18.990;2023-08-31T13:30:23;98101.91;;;19.20;55.89
39491;BME280;25175;50.140;18.990;2023-08-31T13:33:28;98096.13;;;18.98;56.41
39491;BME280;25175;50.140;18.990;2023-08-31T13:36:36;98106.25;;;18.91;56.10
39491;BME280;25175;50.140;18.990;2023-08-31T13:39:45;98112.41;;;18.77;55.87
39491;BME280;25175;50.140;18.990;2023-08-31T13:42:54;98115.31;;;18.70;56.08
39491;BME280;25175;50.140;18.990;2023-08-31T13:46:04;98115.63;;;18.64;56.80
39491;BME280;25175;50.140;18.990;2023-08-31T13:49:09;98104.97;;;18.59;57.76
39491;BME280;25175;50.140;18.990;2023-08-31T13:52:17;98122.78;;;18.68;55.84
39491;BME280;25175;50.140;18.990;2023-08-31T13:55:22;98108.69;;;18.63;54.96
39491;BME280;25175;50.140;18.990;2023-08-31T13:58:29;98112.66;;;18.65;54.66
39491;BME280;25175;50.140;18.990;2023-08-31T14:01:35;98114.78;;;18.73;58.57
39491;BME280;25175;50.140;18.990;2023-08-31T14:04:41;98108.97;;;18.66;59.05
39491;BME280;25175;50.140;18.990;2023-08-31T14:07:48;98129.69;;;18.59;60.06
39491;BME280;25175;50.140;18.990;2023-08-31T14:10:53;98105.75;;;18.69;59.82
39491;BME280;25175;50.140;18.990;2023-08-31T14:14:03;98106.28;;;18.71;59.82
39491;BME280;25175;50.140;18.990;2023-08-31T14:17:12;98100.19;;;18.71;58.46
39491;BME280;25175;50.140;18.990;2023-08-31T14:20:17;98089.28;;;18.72;58.41
39491;BME280;25175;50.140;18.990;2023-08-31T14:23:25;98102.56;;;18.82;59.42
39491;BME280;25175;50.140;18.990;2023-08-31T14:26:29;98103.09;;;18.89;59.55
39491;BME280;25175;50.140;18.990;2023-08-31T14:29:36;98111.84;;;18.90;59.48
39491;BME280;25175;50.140;18.990;2023-08-31T14:32:41;98119.03;;;18.89;58.96
39491;BME280;25175;50.140;18.990;2023-08-31T14:35:50;98121.16;;;18.92;59.01
39491;BME280;25175;50.140;18.990;2023-08-31T14:38:59;98116.38;;;18.94;59.14
39491;BME280;25175;50.140;18.990;2023-08-31T14:42:05;98119.28;;;19.03;60.05
39491;BME280;25175;50.140;18.990;2023-08-31T14:45:09;98067.22;;;18.77;59.12
39491;BME280;25175;50.140;18.990;2023-08-31T14:48:17;98120.03;;;19.13;57.75
39491;BME280;25175;50.140;18.990;2023-08-31T14:51:21;98127.19;;;19.18;58.76
39491;BME280;25175;50.140;18.990;2023-08-31T14:54:29;98115.50;;;19.19;58.98
39491;BME280;25175;50.140;18.990;2023-08-31T14:57:36;98115.75;;;19.22;57.37
39491;BME280;25175;50.140;18.990;2023-08-31T15:00:44;98118.91;;;19.29;56.96
39491;BME280;25175;50.140;18.990;2023-08-31T15:03:49;98126.88;;;19.34;55.46
39491;BME280;25175;50.140;18.990;2023-08-31T15:06:54;98121.28;;;19.36;55.29
39491;BME280;25175;50.140;18.990;2023-08-31T15:10:02;98144.66;;;19.39;54.64
39491;BME280;25175;50.140;18.990;2023-08-31T15:13:08;98129.19;;;19.46;53.77
39491;BME280;25175;50.140;18.990;2023-08-31T15:16:13;98136.66;;;19.49;53.84
39491;BME280;25175;50.140;18.990;2023-08-31T15:19:18;98137.47;;;19.49;53.24
39491;BME280;25175;50.140;18.990;2023-08-31T15:22:23;98138.25;;;19.45;52.93
39491;BME280;25175;50.140;18.990;2023-08-31T15:25:31;98134.81;;;19.39;53.67
39491;BME280;25175;50.140;18.990;2023-08-31T15:28:36;98124.47;;;19.33;54.31
39491;BME280;25175;50.140;18.990;2023-08-31T15:31:41;98140.69;;;19.36;57.48
39491;BME280;25175;50.140;18.990;2023-08-31T15:34:46;98148.66;;;19.36;58.57
39491;BME280;25175;50.140;18.990;2023-08-31T15:37:51;98150.81;;;19.34;59.03
39491;BME280;25175;50.140;18.990;2023-08-31T15:40:59;98158.28;;;19.32;58.90
39491;BME280;25175;50.140;18.990;2023-08-31T15:44:05;98165.72;;;19.25;59.03
39491;BME280;25175;50.140;18.990;2023-08-31T15:47:09;98164.97;;;19.20;59.67
39491;BME280;25175;50.140;18.990;2023-08-31T15:50:16;98161.50;;;19.19;59.68
39491;BME280;25175;50.140;18.990;2023-08-31T15:53:21;98162.06;;;19.16;60.06
39491;BME280;25175;50.140;18.990;2023-08-31T15:56:30;98159.09;;;19.18;60.25
39491;BME280;25175;50.140;18.990;2023-08-31T15:59:35;98162.81;;;19.22;59.93
39491;BME280;25175;50.140;18.990;2023-08-31T16:02:40;98153.25;;;19.21;59.45
39491;BME280;25175;50.140;18.990;2023-08-31T16:05:48;98162.00;;;19.26;58.67
39491;BME280;25175;50.140;18.990;2023-08-31T16:08:54;98160.16;;;19.27;58.54
39491;BME280;25175;50.140;18.990;2023-08-31T16:12:04;98164.16;;;19.24;58.43
39491;BME280;25175;50.140;18.990;2023-08-31T16:15:10;98167.06;;;19.23;58.68
39491;BME280;25175;50.140;18.990;2023-08-31T16:18:15;98158.28;;;19.27;59.24